Terminal Aerodrome Forecast
Issued by NWS

Current Version | Previous Version | Graphics & Text | Print | Product List | Glossary On
Versions: 1 2 3 4 5 6 7 8 9 10 11 12 13 14 15 16 17 18
000
FTUS41 KRNK 250525
TAFLWB
TAF
KLWB 250525Z 2506/2606 00000KT P6SM SCT080
     FM250900 00000KT 1/4SM FG OVC001
     FM251400 27003KT P6SM SCT045
     FM251900 27006KT P6SM VCTS BKN050CB
     FM260000 00000KT P6SM SCT045 BKN080=

USA.gov is the U.S. government's official web portal to all federal, state and local government web resources and services.